首页
METAR-TAF:

METAR-TAF

机场 :

科爾多瓦, 西班牙

纬度: 37-51N, 经度: 004-51W, 海拔: 90米

当前天气观测

该预报发布于25分钟前的05:30 UTC
风速5节,风向东转东北
温度 8°C
湿度 93%
气压 1015 hPa
能見度: 8000
少量云层高于3200英尺
散云层高于4100英尺
小雨

METAR: LEBA 220530Z AUTO 06005KT 8000 -RA FEW032 SCT041 08/07 Q1015

时间: 06:55 (05:55 UTC)

预报

该预报发布于55分钟前的05:00 UTC
预报有效从22日的 06点(UTC)到 22日的 15点(UTC)
风速9节,风向东转东北
能见度10公里或以上
散云层高于3000英尺
几率 30% :
短暂存在
从 22日的 06点(UTC)到 22日的 15点(UTC)
能見度: 4000
散云层高于1500英尺
少量云层高于3000英尺, 塔状积云.
阵雨

TAF: LEBA 220500Z 2206/2215 06009KT 9999 SCT030 PROB30 TEMPO 2206/2215 4000 SHRA SCT015 FEW030TCU

超过4000个机场的气象观测和天气预报(METAR&TAF报告)。

可查询的气象台以黄色和红色小点在地图上表示。

将鼠标移到小点上方,可查看气象台名称。

然后点击查看天气观测和预报。

如需切换地图:点击带黑十字的绿色按钮放大地图;点击带横线的绿色按钮缩小地图;或者点击绿色箭头查看邻近地区的地图。


METAR-TAF: